createdAt,value
2022-08-20T08:11:16.759Z,56.286999
2022-08-20T08:12:25.349Z,56.285
2022-08-20T08:13:34.984Z,56.443001
2022-08-20T08:14:43.557Z,56.673
2022-08-20T08:15:52.390Z,56.84
2022-08-20T08:17:00.956Z,56.933998
2022-08-20T08:18:09.554Z,57.259998
2022-08-20T08:19:20.107Z,57.422001
2022-08-20T08:20:29.779Z,57.679001
2022-08-20T08:21:40.376Z,57.953999
2022-08-20T08:22:50.007Z,58.153999
2022-08-20T08:23:58.519Z,58.286999
2022-08-20T08:25:07.089Z,58.479
2022-08-20T08:26:16.084Z,58.562
2022-08-20T08:27:24.205Z,58.539001
2022-08-20T08:28:34.758Z,58.555
2022-08-20T08:29:43.338Z,58.585999
2022-08-20T08:30:51.892Z,58.707001
2022-08-20T08:32:01.476Z,58.625
2022-08-20T08:33:10.026Z,58.814999
2022-08-20T08:34:18.586Z,58.902
2022-08-20T08:35:27.184Z,58.834999
2022-08-20T08:36:36.739Z,58.709999
2022-08-20T08:37:46.296Z,58.792
2022-08-20T08:38:52.865Z,58.931999
2022-08-20T08:40:00.469Z,58.761002
2022-08-20T08:41:10.010Z,58.541
2022-08-20T08:42:18.569Z,58.693001
2022-08-20T08:43:31.642Z,58.738998
2022-08-20T08:44:38.667Z,58.566002
2022-08-20T08:45:47.229Z,58.627998
2022-08-20T08:46:56.766Z,58.480999
2022-08-20T08:48:05.338Z,58.602001
2022-08-20T08:49:13.870Z,58.505001
2022-08-20T08:50:38.465Z,58.617001
2022-08-20T08:51:33.962Z,58.529999
2022-08-20T08:52:42.521Z,58.632999
2022-08-20T08:53:51.181Z,58.276001
2022-08-20T08:54:59.754Z,58.360001
2022-08-20T08:56:09.316Z,58.193001
2022-08-20T08:57:16.857Z,58.206001
2022-08-20T08:58:24.391Z,58.228001
2022-08-20T08:59:48.744Z,58.234001
2022-08-20T09:00:44.840Z,58.136002
2022-08-20T09:01:57.048Z,58.111
2022-08-20T09:03:04.525Z,58.000999
2022-08-20T09:04:13.094Z,58.293999
2022-08-20T09:05:23.671Z,58.153
2022-08-20T09:06:31.209Z,57.977001
2022-08-20T09:07:38.826Z,57.905998
2022-08-20T09:08:48.377Z,57.971001
2022-08-20T09:09:56.912Z,57.917
2022-08-20T09:11:05.466Z,57.673
2022-08-20T09:12:15.047Z,57.844002
2022-08-20T09:13:23.571Z,57.785
2022-08-20T09:14:33.106Z,57.798
2022-08-20T09:15:40.648Z,57.686001
2022-08-20T09:16:52.555Z,57.738998
2022-08-20T09:17:59.846Z,57.675999
2022-08-20T09:19:08.345Z,57.835999
2022-08-20T09:20:17.766Z,57.730999
2022-08-20T09:21:27.298Z,57.743999
2022-08-20T09:22:35.837Z,57.931
2022-08-20T09:23:45.400Z,57.755001
2022-08-20T09:24:53.959Z,57.592999
2022-08-20T09:26:01.490Z,57.533001
2022-08-20T09:27:11.074Z,57.551998
2022-08-20T09:28:19.612Z,57.396999
2022-08-20T09:29:29.483Z,57.416
2022-08-20T09:30:38.982Z,57.506001
2022-08-20T09:31:47.505Z,57.368
2022-08-20T09:32:57.156Z,57.459
2022-08-20T09:34:05.596Z,57.234001
2022-08-20T09:35:13.135Z,57.355999
2022-08-20T09:36:29.143Z,57.324001
2022-08-20T09:37:35.266Z,57.394001
2022-08-20T09:38:41.683Z,57.161999
2022-08-20T09:39:50.267Z,57.097
2022-08-20T09:40:58.787Z,56.938
2022-08-20T09:42:08.361Z,56.804001
2022-08-20T09:43:16.899Z,56.811001
2022-08-20T09:44:25.445Z,56.779999
2022-08-20T09:45:34.997Z,56.779999
2022-08-20T09:46:43.547Z,56.901001
2022-08-20T09:47:54.894Z,56.882999
2022-08-20T09:49:02.842Z,56.835999
2022-08-20T09:50:12.829Z,57.070999
2022-08-20T09:51:22.603Z,56.987999
2022-08-20T09:52:31.151Z,56.956001
2022-08-20T09:53:40.887Z,56.928001
2022-08-20T09:54:50.430Z,56.916
2022-08-20T09:55:58.957Z,56.869999
2022-08-20T09:57:07.581Z,56.875999
2022-08-20T09:58:16.152Z,56.831001
2022-08-20T09:59:24.698Z,57.007999
2022-08-20T10:00:34.359Z,56.988998
2022-08-20T10:01:43.943Z,56.958
2022-08-20T10:02:52.636Z,56.821999
2022-08-20T10:04:01.169Z,56.855999
2022-08-20T10:05:09.706Z,56.856998
2022-08-20T10:06:18.244Z,56.799999
2022-08-20T10:07:27.784Z,56.856998
2022-08-20T10:08:35.337Z,56.909
2022-08-20T10:09:42.885Z,56.875
2022-08-20T10:10:53.187Z,56.729
2022-08-20T10:12:09.220Z,56.736
2022-08-20T10:13:18.782Z,56.754002
2022-08-20T10:14:28.321Z,56.754002
2022-08-20T10:15:37.924Z,56.821999
2022-08-20T10:16:54.989Z,56.752998
2022-08-20T10:18:03.517Z,56.740002
2022-08-20T10:19:12.064Z,56.778
2022-08-20T10:20:21.630Z,56.713001
2022-08-20T10:21:33.352Z,56.675999
2022-08-20T10:22:41.717Z,56.791
2022-08-20T10:23:49.256Z,56.758999
2022-08-20T10:24:58.813Z,56.713001
2022-08-20T10:26:07.342Z,56.668999
2022-08-20T10:27:15.900Z,56.764999
2022-08-20T10:28:25.470Z,56.657001
2022-08-20T10:29:35.066Z,56.644001
2022-08-20T10:30:44.626Z,56.688
2022-08-20T10:31:53.174Z,56.632999
2022-08-20T10:33:00.763Z,56.682999
2022-08-20T10:34:10.308Z,56.581001
2022-08-20T10:35:18.874Z,56.595001
2022-08-20T10:36:27.429Z,56.613998
2022-08-20T10:37:37.009Z,56.587002
2022-08-20T10:38:45.551Z,56.587002
2022-08-20T10:39:55.167Z,56.601002
2022-08-20T10:41:02.706Z,56.512001
2022-08-20T10:42:11.255Z,56.493
2022-08-20T10:43:20.837Z,56.466
2022-08-20T10:44:29.396Z,56.428001
2022-08-20T10:45:38.929Z,56.390999
2022-08-20T10:46:48.477Z,56.458
2022-08-20T10:47:59.117Z,56.387001
2022-08-20T10:49:08.586Z,56.419998
2022-08-20T10:50:16.133Z,56.470001
2022-08-20T10:51:30.476Z,56.362
2022-08-20T10:52:36.184Z,56.375
2022-08-20T10:53:44.718Z,56.398998
2022-08-20T10:54:54.301Z,56.285
2022-08-20T10:56:02.833Z,56.285
2022-08-20T10:57:12.403Z,56.209999
2022-08-20T10:58:23.891Z,56.212002
2022-08-20T10:59:32.622Z,56.200001
2022-08-20T11:00:41.176Z,56.174999
2022-08-20T11:01:50.794Z,56.174999
2022-08-20T11:02:59.275Z,56.131001
2022-08-20T11:04:07.816Z,56.098
2022-08-20T11:05:16.369Z,56.131001
2022-08-20T11:06:24.887Z,55.958
2022-08-20T11:07:49.735Z,55.945999
2022-08-20T11:08:44.939Z,55.902
2022-08-20T11:09:53.514Z,55.862999
2022-08-20T11:11:03.685Z,55.825001
2022-08-20T11:12:12.248Z,55.748001
2022-08-20T11:13:20.793Z,55.742001
2022-08-20T11:14:28.340Z,55.723
2022-08-20T11:15:36.922Z,55.692001
2022-08-20T11:16:46.467Z,55.615002
2022-08-20T11:17:54.014Z,55.609001
2022-08-20T11:19:02.564Z,55.672001
2022-08-20T11:20:12.245Z,55.661999
2022-08-20T11:21:20.677Z,55.616001
2022-08-20T11:22:29.248Z,55.584
2022-08-20T11:23:37.808Z,55.527
2022-08-20T11:24:47.329Z,55.533001
2022-08-20T11:25:57.898Z,55.407001
2022-08-20T11:27:05.547Z,55.223999
2022-08-20T11:28:13.082Z,55.134998
2022-08-20T11:29:23.623Z,55.070999
2022-08-20T11:30:33.166Z,55.008999
2022-08-20T11:31:42.706Z,54.976002
2022-08-20T11:32:51.247Z,54.987999
2022-08-20T11:33:59.778Z,54.973999
2022-08-20T11:35:24.871Z,54.973999
2022-08-20T11:36:19.836Z,54.955002
2022-08-20T11:37:27.368Z,54.959
2022-08-20T11:38:36.934Z,54.959
2022-08-20T11:39:46.509Z,54.966
2022-08-20T11:40:56.077Z,54.966
2022-08-20T11:42:05.593Z,55.002998
2022-08-20T11:43:16.560Z,54.952999
2022-08-20T11:44:24.659Z,54.922001
2022-08-20T11:45:32.837Z,54.941002
2022-08-20T11:46:41.621Z,54.972
2022-08-20T11:47:51.188Z,55.002998
2022-08-20T11:48:59.829Z,54.984001
2022-08-20T11:50:08.455Z,54.990002
2022-08-20T11:51:17.013Z,55.023998
2022-08-20T11:52:26.608Z,55.049
2022-08-20T11:53:36.179Z,55.085999
2022-08-20T11:54:45.738Z,55.187
2022-08-20T11:55:56.435Z,55.289001
2022-08-20T11:57:06.118Z,55.353001
2022-08-20T11:58:14.722Z,55.535999
2022-08-20T11:59:24.264Z,55.529999
2022-08-20T12:00:34.214Z,55.588001
2022-08-20T12:01:41.431Z,55.688999
2022-08-20T12:02:50.146Z,55.783001
2022-08-20T12:04:00.554Z,55.828999
2022-08-20T12:05:09.164Z,55.841
2022-08-20T12:06:18.976Z,55.854
2022-08-20T12:07:28.527Z,55.967999
2022-08-20T12:08:38.134Z,56.095001
2022-08-20T12:09:50.279Z,56.101002
2022-08-20T12:10:57.431Z,56.101002
2022-08-20T12:12:04.992Z,56.166
2022-08-20T12:13:13.600Z,56.209
2022-08-20T12:14:22.114Z,56.261002
2022-08-20T12:15:31.791Z,56.228001
2022-08-20T12:16:41.356Z,56.216
2022-08-20T12:17:50.925Z,56.178001
2022-08-20T12:19:00.476Z,56.282001
2022-08-20T12:20:08.292Z,56.346001
2022-08-20T12:21:15.877Z,56.370998
2022-08-20T12:22:25.639Z,56.410999
2022-08-20T12:23:34.194Z,56.396
2022-08-20T12:24:44.053Z,56.353001
2022-08-20T12:25:54.628Z,56.34
2022-08-20T12:27:03.314Z,56.359001
2022-08-20T12:28:12.863Z,56.34
2022-08-20T12:29:21.470Z,56.321999
2022-08-20T12:30:29.028Z,56.231998
2022-08-20T12:31:38.593Z,56.284
2022-08-20T12:32:47.158Z,56.284
2022-08-20T12:33:56.773Z,56.297001
2022-08-20T12:35:05.318Z,56.374001
2022-08-20T12:36:13.924Z,56.361
2022-08-20T12:37:23.546Z,56.297001
2022-08-20T12:38:32.104Z,56.264999
2022-08-20T12:39:39.671Z,56.252998
2022-08-20T12:40:49.216Z,56.291
2022-08-20T12:41:58.802Z,56.245998
2022-08-20T12:43:07.420Z,56.257999
2022-08-20T12:44:17.136Z,56.290001
2022-08-20T12:45:25.756Z,56.290001
2022-08-20T12:46:35.326Z,56.290001
2022-08-20T12:47:44.920Z,56.296001
2022-08-20T12:48:52.220Z,56.320999
2022-08-20T12:50:01.869Z,56.283001
2022-08-20T12:51:11.400Z,56.251999
2022-08-20T12:52:21.071Z,56.290001
2022-08-20T12:53:30.538Z,56.271
2022-08-20T12:54:40.206Z,56.327
2022-08-20T12:55:49.836Z,56.307999
2022-08-20T12:56:58.381Z,56.277
2022-08-20T12:58:06.905Z,56.271
2022-08-20T12:59:16.461Z,56.283001
2022-08-20T13:00:27.291Z,56.233002
2022-08-20T13:01:35.852Z,56.296001
2022-08-20T13:02:44.553Z,56.290001
2022-08-20T13:03:53.075Z,56.291
2022-08-20T13:05:05.113Z,56.235001
2022-08-20T13:06:11.144Z,56.247002
2022-08-20T13:07:19.680Z,56.229
2022-08-20T13:08:29.259Z,56.241001
2022-08-20T13:09:37.791Z,56.216
2022-08-20T13:10:47.332Z,56.196999
2022-08-20T13:11:55.869Z,56.191002
2022-08-20T13:13:04.574Z,56.139
2022-08-20T13:14:14.155Z,56.125999
2022-08-20T13:15:21.719Z,56.145
2022-08-20T13:16:28.253Z,56.187
2022-08-20T13:17:38.549Z,56.187
2022-08-20T13:18:46.315Z,56.326
2022-08-20T13:19:56.776Z,56.345001
2022-08-20T13:21:05.335Z,56.300999
2022-08-20T13:22:13.858Z,56.351002
2022-08-20T13:23:23.444Z,56.356998
2022-08-20T13:24:31.032Z,56.390999
2022-08-20T13:25:40.654Z,56.372002
2022-08-20T13:26:50.247Z,56.416
2022-08-20T13:27:59.821Z,56.523998
2022-08-20T13:29:08.527Z,56.536999
2022-08-20T13:30:17.116Z,56.530998
2022-08-20T13:31:26.656Z,56.536999
2022-08-20T13:32:36.214Z,56.505001
2022-08-20T13:33:44.783Z,56.493
2022-08-20T13:34:53.346Z,56.48
2022-08-20T13:36:02.898Z,56.536999
2022-08-20T13:37:10.431Z,56.518002
2022-08-20T13:38:19.965Z,56.542999
2022-08-20T13:39:29.526Z,56.530998
2022-08-20T13:40:38.045Z,56.493
2022-08-20T13:41:47.598Z,56.542999
2022-08-20T13:42:55.338Z,56.549
2022-08-20T13:44:04.706Z,56.555
2022-08-20T13:45:14.258Z,56.549
2022-08-20T13:46:22.798Z,56.574001
2022-08-20T13:47:32.344Z,56.452999
2022-08-20T13:48:40.909Z,56.381001
2022-08-20T13:49:49.448Z,56.414001
2022-08-20T13:50:59.026Z,56.458
2022-08-20T13:52:08.556Z,56.419998
2022-08-20T13:53:17.118Z,56.426998
2022-08-20T13:54:29.962Z,56.405998
2022-08-20T13:55:37.933Z,56.405998
2022-08-20T13:56:44.705Z,56.458
2022-08-20T13:57:54.254Z,56.419998
2022-08-20T13:59:01.786Z,56.398998
2022-08-20T14:00:09.332Z,56.354
2022-08-20T14:01:18.901Z,56.417
2022-08-20T14:02:27.427Z,56.384998
2022-08-20T14:03:36.131Z,56.384998
2022-08-20T14:04:46.697Z,56.313999
2022-08-20T14:05:55.273Z,56.168999
2022-08-20T14:07:04.816Z,56.277
2022-08-20T14:08:13.536Z,56.238998
2022-08-20T14:09:22.081Z,56.251999
2022-08-20T14:10:31.739Z,56.277
2022-08-20T14:11:41.296Z,56.271
2022-08-20T14:12:51.031Z,56.212002
2022-08-20T14:13:59.485Z,56.048
2022-08-20T14:15:09.101Z,56.169998
2022-08-20T14:16:21.070Z,56.188
2022-08-20T14:17:29.151Z,56.162998
2022-08-20T14:18:37.703Z,56.222
2022-08-20T14:19:48.255Z,56.237999
2022-08-20T14:20:57.644Z,56.213001
2022-08-20T14:22:05.534Z,56.257
2022-08-20T14:23:15.019Z,56.263
2022-08-20T14:24:23.571Z,56.314999
2022-08-20T14:25:34.116Z,56.335999
2022-08-20T14:26:42.672Z,56.305
2022-08-20T14:27:50.284Z,56.324001
2022-08-20T14:28:58.847Z,56.318001
2022-08-20T14:30:07.415Z,56.356998
2022-08-20T14:31:15.975Z,56.407001
2022-08-20T14:32:24.550Z,56.369999
2022-08-20T14:33:33.156Z,56.438999
2022-08-20T14:34:43.993Z,56.459
2022-08-20T14:35:51.545Z,56.515999
2022-08-20T14:36:59.079Z,56.507999
2022-08-20T14:38:08.614Z,56.527
2022-08-20T14:39:20.284Z,56.449001
2022-08-20T14:40:25.715Z,56.398998
2022-08-20T14:41:35.247Z,56.480999
2022-08-20T14:42:45.824Z,56.387001
2022-08-20T14:43:55.384Z,56.393002
2022-08-20T14:45:02.926Z,56.462002
2022-08-20T14:46:10.466Z,56.379002
2022-08-20T14:47:20.070Z,56.333
2022-08-20T14:48:28.601Z,56.363998
2022-08-20T14:49:37.149Z,56.376999
2022-08-20T14:50:45.749Z,56.363998
2022-08-20T14:51:55.258Z,56.429001
2022-08-20T14:53:04.827Z,56.466999
2022-08-20T14:54:13.372Z,56.442001
2022-08-20T14:55:20.947Z,56.402
2022-08-20T14:56:30.536Z,56.544998
2022-08-20T14:57:39.075Z,56.486
2022-08-20T14:58:47.628Z,56.539001
2022-08-20T14:59:56.180Z,56.410999
2022-08-20T15:01:04.777Z,56.437
2022-08-20T15:02:14.347Z,56.589001
2022-08-20T15:03:20.882Z,56.606998
2022-08-20T15:04:28.446Z,56.613998
2022-08-20T15:05:39.418Z,56.653999
2022-08-20T15:06:46.642Z,56.601002
2022-08-20T15:07:57.116Z,56.640999
2022-08-20T15:09:05.660Z,56.650002
2022-08-20T15:10:14.248Z,56.612
2022-08-20T15:11:23.800Z,56.581001
2022-08-20T15:12:32.621Z,56.541
2022-08-20T15:13:40.180Z,56.599998
2022-08-20T15:14:49.730Z,56.671001
2022-08-20T15:15:59.259Z,56.509998
2022-08-20T15:17:07.783Z,56.535
2022-08-20T15:18:16.350Z,56.637001
2022-08-20T15:19:24.919Z,56.606998
2022-08-20T15:20:34.441Z,56.619999
2022-08-20T15:21:44.823Z,56.612999
2022-08-20T15:22:50.718Z,56.639999
2022-08-20T15:24:00.236Z,56.666
2022-08-20T15:25:14.843Z,56.696999
2022-08-20T15:26:27.867Z,56.716
2022-08-20T15:27:36.438Z,56.556999
2022-08-20T15:28:44.969Z,56.445
2022-08-20T15:29:53.597Z,56.592999
2022-08-20T15:31:01.165Z,56.431999
2022-08-20T15:32:08.735Z,56.412998
2022-08-20T15:33:19.034Z,56.445
2022-08-20T15:34:27.594Z,56.401001
2022-08-20T15:35:36.162Z,56.701
2022-08-20T15:36:44.702Z,56.624001
2022-08-20T15:37:54.624Z,56.484001
2022-08-20T15:39:02.813Z,56.487
2022-08-20T15:40:10.381Z,56.574001
2022-08-20T15:41:18.952Z,56.587002
2022-08-20T15:42:28.491Z,56.487
2022-08-20T15:43:38.067Z,56.452999
2022-08-20T15:44:45.635Z,56.507999
2022-08-20T15:45:56.284Z,56.405998
2022-08-20T15:47:04.825Z,56.398998
2022-08-20T15:48:14.383Z,56.209999
2022-08-20T15:49:21.905Z,56.139
2022-08-20T15:50:30.463Z,56.188999
2022-08-20T15:51:40.029Z,56.182999
2022-08-20T15:52:49.621Z,56.081001
2022-08-20T15:53:58.161Z,56.202999
2022-08-20T15:55:08.700Z,56.062
2022-08-20T15:56:19.572Z,56.151001
2022-08-20T15:57:27.093Z,56.108002
2022-08-20T15:58:36.637Z,56.145
2022-08-20T15:59:45.170Z,56.139
2022-08-20T16:00:53.786Z,56.182999
2022-08-20T16:02:04.268Z,56.145
2022-08-20T16:03:12.819Z,56.030998
2022-08-20T16:04:22.374Z,56.089001
2022-08-20T16:05:30.005Z,55.980999
2022-08-20T16:06:37.561Z,55.839001
2022-08-20T16:07:47.136Z,56.042999
2022-08-20T16:08:55.680Z,56.195
2022-08-20T16:10:04.277Z,56.337002
2022-08-20T16:11:13.006Z,56.419998
2022-08-20T16:12:21.697Z,56.362
2022-08-20T16:13:30.239Z,56.501999
2022-08-20T16:14:38.825Z,56.488998
2022-08-20T16:15:49.642Z,56.610001
2022-08-20T16:17:01.412Z,56.706001
2022-08-20T16:18:07.574Z,56.891998
2022-08-20T16:19:17.145Z,57.013
2022-08-20T16:20:25.743Z,57.063
2022-08-20T16:21:35.351Z,57.037998
2022-08-20T16:22:44.976Z,56.976002
2022-08-20T16:23:55.641Z,57.097
2022-08-20T16:25:04.252Z,57.158001
2022-08-20T16:26:13.808Z,57.182999
2022-08-20T16:27:22.487Z,57.120998
2022-08-20T16:28:32.064Z,57.182999
2022-08-20T16:29:40.627Z,57.132999
2022-08-20T16:30:49.250Z,57.176998
2022-08-20T16:31:58.802Z,57.02
2022-08-20T16:33:07.358Z,57.007999
2022-08-20T16:34:25.778Z,56.964001
2022-08-20T16:35:29.803Z,56.952
2022-08-20T16:36:37.060Z,56.977001
2022-08-20T16:37:46.657Z,56.977001
2022-08-20T16:38:56.244Z,57.159
2022-08-20T16:40:04.826Z,57.166
2022-08-20T16:41:14.353Z,57.075001
2022-08-20T16:42:22.905Z,57.025002
2022-08-20T16:43:30.442Z,57.23
2022-08-20T16:44:40.042Z,57.273998
2022-08-20T16:45:50.760Z,57.396
2022-08-20T16:46:57.186Z,57.546001
2022-08-20T16:48:06.716Z,57.527
2022-08-20T16:49:15.287Z,57.577
2022-08-20T16:50:24.863Z,57.59
2022-08-20T16:51:32.430Z,57.546001
2022-08-20T16:52:40.978Z,57.507999
2022-08-20T16:53:50.554Z,57.372002
2022-08-20T16:54:59.168Z,57.345001
2022-08-20T16:56:07.731Z,57.312
2022-08-20T16:57:17.437Z,57.223999
2022-08-20T16:58:24.811Z,57.255001
2022-08-20T16:59:34.364Z,57.195999
2022-08-20T17:00:45.103Z,57.165001
2022-08-20T17:01:50.499Z,57.056
2022-08-20T17:03:01.068Z,57.006001
2022-08-20T17:04:09.608Z,57.006001
2022-08-20T17:05:19.188Z,57.061001
2022-08-20T17:06:28.766Z,57.027
2022-08-20T17:07:37.307Z,57.061001
2022-08-20T17:08:47.899Z,57.067001
2022-08-20T17:09:56.461Z,56.952
2022-08-20T17:11:06.011Z,56.926998
2022-08-20T17:12:15.572Z,56.881001
2022-08-20T17:13:24.107Z,56.778999
2022-08-20T17:14:33.665Z,56.944
2022-08-20T17:15:42.257Z,56.861
2022-08-20T17:16:51.792Z,56.817001
2022-08-20T17:18:01.416Z,57.021
2022-08-20T17:19:10.025Z,57.130001
2022-08-20T17:20:20.175Z,57.071999
2022-08-20T17:21:29.167Z,57.132999
2022-08-20T17:22:37.715Z,57.185001
2022-08-20T17:23:55.831Z,57.16
2022-08-20T17:24:57.823Z,57.063999
2022-08-20T17:26:07.360Z,56.903
2022-08-20T17:27:16.918Z,56.870998
2022-08-20T17:28:26.442Z,56.889
2022-08-20T17:29:35.969Z,56.830002
2022-08-20T17:30:45.526Z,56.740002
2022-08-20T17:31:55.060Z,56.594002
2022-08-20T17:33:03.600Z,56.522999
2022-08-20T17:34:12.166Z,56.436001
2022-08-20T17:35:21.738Z,56.383999
2022-08-20T17:36:31.379Z,56.402
2022-08-20T17:37:41.976Z,56.436001
2022-08-20T17:38:49.536Z,56.415001
2022-08-20T17:39:59.209Z,56.375999
2022-08-20T17:41:07.892Z,56.356998
2022-08-20T17:42:17.448Z,56.368999
2022-08-20T17:43:26.111Z,56.465
2022-08-20T17:44:34.704Z,56.654999
2022-08-20T17:45:44.288Z,56.803001
2022-08-20T17:46:53.882Z,56.816002
2022-08-20T17:48:02.478Z,56.905998
2022-08-20T17:49:12.143Z,56.986
2022-08-20T17:50:20.747Z,57.101002
2022-08-20T17:51:30.348Z,57.113998
2022-08-20T17:52:40.053Z,57.216
2022-08-20T17:53:47.494Z,57.174999
2022-08-20T17:54:55.045Z,57.335999
2022-08-20T17:56:04.652Z,57.361
2022-08-20T17:57:14.328Z,57.276001
2022-08-20T17:58:21.822Z,57.153999
2022-08-20T17:59:33.729Z,57.089001
2022-08-20T18:00:40.949Z,57.02
2022-08-20T18:01:50.608Z,56.794998
2022-08-20T18:02:58.223Z,56.375
2022-08-20T18:04:05.652Z,56.18
2022-08-20T18:05:15.627Z,56.141998
2022-08-20T18:06:27.350Z,56.046001
